createdAt,value
2019-02-02T00:01:46.304Z,51.73
2019-02-02T00:03:47.165Z,62.00
2019-02-02T00:05:47.992Z,57.50
2019-02-02T00:07:49.144Z,58.77
2019-02-02T00:09:50.004Z,56.90
2019-02-02T00:11:50.832Z,51.87
2019-02-02T00:13:51.664Z,58.80
2019-02-02T00:15:52.516Z,56.43
2019-02-02T00:17:53.344Z,49.07
2019-02-02T00:19:55.863Z,55.70
2019-02-02T00:21:56.837Z,53.07
2019-02-02T00:23:57.668Z,48.90
2019-02-02T00:25:58.525Z,49.97
2019-02-02T00:27:59.364Z,47.67
2019-02-02T00:30:00.716Z,51.97
2019-02-02T00:32:01.547Z,50.63
2019-02-02T00:34:02.560Z,55.47
2019-02-02T00:36:03.522Z,49.67
2019-02-02T00:38:04.431Z,56.73
2019-02-02T00:40:05.548Z,49.07
2019-02-02T00:42:06.402Z,52.57
2019-02-02T00:44:07.253Z,50.10
2019-02-02T00:46:08.363Z,53.00
2019-02-02T00:48:09.206Z,50.83
2019-02-02T00:50:10.056Z,49.93
2019-02-02T00:52:11.178Z,54.87
2019-02-02T00:54:12.033Z,53.27
2019-02-02T00:56:13.157Z,49.63
2019-02-02T00:58:13.991Z,49.40
2019-02-02T01:00:14.829Z,56.47
2019-02-02T01:02:15.992Z,53.60
2019-02-02T01:04:16.824Z,47.83
2019-02-02T01:06:17.652Z,56.30
2019-02-02T01:08:18.497Z,51.17
2019-02-02T01:10:19.370Z,51.30
2019-02-02T01:12:20.296Z,50.50
2019-02-02T01:14:21.152Z,49.90
2019-02-02T01:16:21.984Z,49.03
2019-02-02T01:18:22.822Z,55.67
2019-02-02T01:20:23.662Z,52.10
2019-02-02T01:22:24.496Z,52.30
2019-02-02T01:24:25.633Z,49.07
2019-02-02T01:26:26.460Z,55.97
2019-02-02T01:28:27.584Z,55.33
2019-02-02T01:30:28.432Z,58.23
2019-02-02T01:32:29.271Z,55.73
2019-02-02T01:34:30.421Z,57.27
2019-02-02T01:36:31.244Z,61.17
2019-02-02T01:38:32.077Z,62.93
2019-02-02T01:40:32.922Z,67.73
2019-02-02T01:42:33.752Z,140.07
2019-02-02T01:44:34.864Z,72.97
2019-02-02T01:46:35.981Z,87.60
2019-02-02T01:48:36.784Z,78.90
2019-02-02T01:50:37.888Z,59.83
2019-02-02T01:52:39.037Z,122.33
2019-02-02T01:54:39.873Z,91.87
2019-02-02T01:56:40.696Z,66.40
2019-02-02T01:58:41.541Z,63.80
2019-02-02T02:00:42.382Z,62.83
2019-02-02T02:02:43.508Z,96.03
2019-02-02T02:04:44.632Z,160.33
2019-02-02T02:06:45.481Z,311.73
2019-02-02T02:08:46.416Z,191.93
2019-02-02T02:10:47.312Z,193.23
2019-02-02T02:12:48.497Z,76.37
2019-02-02T02:14:49.330Z,68.27
2019-02-02T02:16:50.176Z,75.53
2019-02-02T02:18:51.017Z,71.80
2019-02-02T02:20:51.869Z,59.40
2019-02-02T02:22:53.069Z,62.47
2019-02-02T02:24:53.901Z,67.40
2019-02-02T02:26:55.045Z,59.10
2019-02-02T02:28:55.908Z,54.63
2019-02-02T02:30:56.744Z,74.57
2019-02-02T02:32:57.840Z,85.40
2019-02-02T02:34:58.689Z,69.87
2019-02-02T02:36:59.528Z,142.27
2019-02-02T02:39:00.642Z,193.17
2019-02-02T02:41:01.479Z,101.27
2019-02-02T02:43:02.326Z,117.03
2019-02-02T02:45:03.145Z,61.20
2019-02-02T02:47:03.990Z,73.90
2019-02-02T02:49:04.826Z,62.40
2019-02-02T02:51:05.681Z,53.97
2019-02-02T02:53:06.524Z,74.33
2019-02-02T02:55:07.360Z,76.37
2019-02-02T02:57:08.216Z,68.00
2019-02-02T02:59:09.041Z,66.17
2019-02-02T03:01:09.880Z,68.53
2019-02-02T03:03:10.716Z,84.00
2019-02-02T03:05:11.548Z,60.70
2019-02-02T03:07:12.395Z,58.47
2019-02-02T03:09:13.250Z,57.87
2019-02-02T03:11:14.096Z,59.07
2019-02-02T03:13:14.944Z,68.80
2019-02-02T03:15:15.868Z,52.20
2019-02-02T03:17:16.704Z,55.57
2019-02-02T03:19:17.560Z,58.17
2019-02-02T03:21:18.640Z,51.70
2019-02-02T03:23:19.473Z,54.13
2019-02-02T03:25:20.328Z,49.97
2019-02-02T03:27:21.160Z,62.73
2019-02-02T03:29:22.004Z,53.30
2019-02-02T03:31:23.139Z,53.23
2019-02-02T03:33:23.976Z,69.17
2019-02-02T03:35:24.812Z,54.73
2019-02-02T03:37:25.649Z,62.50
2019-02-02T03:39:26.488Z,58.83
2019-02-02T03:41:27.344Z,66.53
2019-02-02T03:43:28.207Z,50.10
2019-02-02T03:45:29.037Z,65.47
2019-02-02T03:47:29.864Z,69.97
2019-02-02T03:49:30.709Z,72.53
2019-02-02T03:51:31.553Z,61.93
2019-02-02T03:53:32.404Z,61.13
2019-02-02T03:55:33.521Z,57.80
2019-02-02T03:57:34.373Z,61.10
2019-02-02T03:59:35.209Z,60.40
2019-02-02T04:01:36.061Z,56.60
2019-02-02T04:03:37.221Z,56.13
2019-02-02T04:05:38.068Z,66.20
2019-02-02T04:07:38.920Z,57.20
2019-02-02T04:09:39.778Z,54.37
2019-02-02T04:11:43.455Z,58.50
2019-02-02T04:13:43.357Z,61.30
2019-02-02T04:15:44.509Z,53.50
2019-02-02T04:17:45.336Z,52.67
2019-02-02T04:19:46.184Z,54.17
2019-02-02T04:21:47.353Z,52.97
2019-02-02T04:23:48.461Z,46.27
2019-02-02T04:25:49.308Z,49.27
2019-02-02T04:27:50.162Z,49.30
2019-02-02T04:29:51.008Z,49.33
2019-02-02T04:31:51.840Z,49.83
2019-02-02T04:33:52.668Z,47.13
2019-02-02T04:35:53.524Z,58.07
2019-02-02T04:37:54.356Z,58.43
2019-02-02T04:39:55.189Z,64.33
2019-02-02T04:41:56.038Z,54.73
2019-02-02T04:43:56.895Z,50.60
2019-02-02T04:45:57.749Z,50.93
2019-02-02T04:47:59.132Z,48.17
2019-02-02T04:49:59.985Z,49.60
2019-02-02T04:52:00.832Z,49.73
2019-02-02T04:54:01.684Z,54.63
2019-02-02T04:56:02.537Z,55.47
2019-02-02T04:58:03.360Z,53.70
2019-02-02T05:00:04.213Z,58.60
2019-02-02T05:02:05.040Z,54.37
2019-02-02T05:04:05.888Z,55.47
2019-02-02T05:06:06.737Z,55.30
2019-02-02T05:08:07.573Z,57.07
2019-02-02T05:10:08.433Z,54.87
2019-02-02T05:12:09.255Z,55.40
2019-02-02T05:14:10.088Z,53.43
2019-02-02T05:16:10.960Z,56.03
2019-02-02T05:18:11.793Z,54.03
2019-02-02T05:20:12.961Z,59.93
2019-02-02T05:22:13.984Z,57.80
2019-02-02T05:24:15.120Z,59.07
2019-02-02T05:26:16.106Z,48.63
2019-02-02T05:28:17.012Z,53.77
2019-02-02T05:30:17.850Z,50.77
2019-02-02T05:32:18.697Z,52.43
2019-02-02T05:34:19.528Z,54.33
2019-02-02T05:36:20.724Z,52.20
2019-02-02T05:38:21.870Z,48.90
2019-02-02T05:40:22.998Z,54.10
2019-02-02T05:42:23.836Z,59.20
2019-02-02T05:44:24.921Z,62.20
2019-02-02T05:46:26.031Z,63.77
2019-02-02T05:48:26.854Z,65.60
2019-02-02T05:50:27.973Z,55.50
2019-02-02T05:52:28.812Z,60.83
2019-02-02T05:54:29.661Z,53.73
2019-02-02T05:56:30.789Z,62.10
2019-02-02T05:58:31.637Z,53.47
2019-02-02T06:00:45.125Z,65.07
2019-02-02T06:02:45.964Z,55.40
2019-02-02T06:04:47.140Z,62.93
2019-02-02T06:06:47.969Z,60.00
2019-02-02T06:08:48.812Z,57.97
2019-02-02T06:10:49.648Z,60.83
2019-02-02T06:12:50.483Z,52.23
2019-02-02T06:14:51.610Z,62.57
2019-02-02T06:16:52.437Z,58.10
2019-02-02T06:18:53.269Z,63.73
2019-02-02T06:20:54.115Z,59.93
2019-02-02T06:22:54.957Z,59.30
2019-02-02T06:24:56.198Z,64.30
2019-02-02T06:26:57.112Z,55.70
2019-02-02T06:28:57.949Z,59.33
2019-02-02T06:31:00.222Z,55.80
2019-02-02T06:33:01.244Z,55.90
2019-02-02T06:35:02.085Z,54.87
2019-02-02T06:37:02.917Z,59.43
2019-02-02T06:39:04.128Z,57.23
2019-02-02T06:41:04.960Z,57.67
2019-02-02T06:43:05.804Z,65.63
2019-02-02T06:45:06.636Z,53.13
2019-02-02T06:47:07.468Z,58.57
2019-02-02T06:49:08.636Z,51.63
2019-02-02T06:51:09.473Z,49.27
2019-02-02T06:53:10.308Z,53.23
2019-02-02T06:55:11.363Z,53.53
2019-02-02T06:57:12.192Z,52.93
2019-02-02T06:59:13.036Z,53.73
2019-02-02T07:01:14.257Z,51.60
2019-02-02T07:03:15.466Z,51.20
2019-02-02T07:05:16.676Z,49.20
2019-02-02T07:07:17.856Z,47.20
2019-02-02T07:09:19.012Z,51.50
2019-02-02T07:11:20.142Z,50.07
2019-02-02T07:13:20.989Z,46.07
2019-02-02T07:15:21.822Z,48.17
2019-02-02T07:17:22.677Z,48.17
2019-02-02T07:19:23.509Z,44.43
2019-02-02T07:21:24.328Z,42.23
2019-02-02T07:23:25.185Z,41.43
2019-02-02T07:25:26.113Z,38.93
2019-02-02T07:27:26.940Z,42.37
2019-02-02T07:29:27.784Z,47.77
2019-02-02T07:31:28.646Z,47.57
2019-02-02T07:33:29.728Z,48.20
2019-02-02T07:35:30.561Z,45.17
2019-02-02T07:37:31.585Z,43.67
2019-02-02T07:39:32.432Z,42.67
2019-02-02T07:41:33.269Z,38.93
2019-02-02T07:43:34.108Z,38.77
2019-02-02T07:45:34.944Z,40.47
2019-02-02T07:47:36.056Z,40.53
2019-02-02T07:49:36.910Z,40.40
2019-02-02T07:51:37.745Z,41.90
2019-02-02T07:53:38.888Z,41.07
2019-02-02T07:55:40.001Z,40.50
2019-02-02T07:57:40.829Z,40.07
2019-02-02T07:59:41.714Z,38.57
2019-02-02T08:01:42.544Z,44.33
2019-02-02T08:03:43.666Z,43.83
2019-02-02T08:05:44.492Z,42.30
2019-02-02T08:07:45.441Z,44.63
2019-02-02T08:09:46.377Z,44.93
2019-02-02T08:11:47.234Z,43.53
2019-02-02T08:13:48.157Z,44.43
2019-02-02T08:15:48.993Z,41.03
2019-02-02T08:17:49.837Z,39.30
2019-02-02T08:19:50.672Z,41.77
2019-02-02T08:21:51.496Z,50.07
2019-02-02T08:23:52.344Z,48.33
2019-02-02T08:25:53.196Z,45.47
2019-02-02T08:27:54.069Z,47.07
2019-02-02T08:29:54.908Z,47.83
2019-02-02T08:31:56.020Z,45.53
2019-02-02T08:33:56.868Z,51.33
2019-02-02T08:35:57.700Z,48.37
2019-02-02T08:37:58.546Z,48.37
2019-02-02T08:39:59.384Z,51.50
2019-02-02T08:42:00.246Z,50.30
2019-02-02T08:44:01.094Z,52.57
2019-02-02T08:46:01.924Z,48.00
2019-02-02T08:48:02.780Z,49.40
2019-02-02T08:50:03.606Z,54.17
2019-02-02T08:52:04.460Z,48.10
2019-02-02T08:54:05.357Z,48.00
2019-02-02T08:56:06.275Z,51.53
2019-02-02T08:58:07.240Z,50.23
2019-02-02T09:00:08.400Z,51.20
2019-02-02T09:02:09.243Z,46.80
2019-02-02T09:04:10.184Z,51.03
2019-02-02T09:06:11.121Z,50.30
2019-02-02T09:08:11.962Z,44.27
2019-02-02T09:10:12.820Z,45.47
2019-02-02T09:12:13.672Z,48.83
2019-02-02T09:14:14.508Z,46.40
2019-02-02T09:16:15.700Z,46.73
2019-02-02T09:18:16.538Z,47.33
2019-02-02T09:20:17.391Z,47.27
2019-02-02T09:22:18.240Z,45.57
2019-02-02T09:24:19.076Z,46.90
2019-02-02T09:26:19.920Z,42.23
2019-02-02T09:28:21.115Z,44.30
2019-02-02T09:30:22.228Z,44.47
2019-02-02T09:32:23.064Z,43.57
2019-02-02T09:34:23.910Z,41.23
2019-02-02T09:36:24.748Z,41.87
2019-02-02T09:38:25.604Z,38.50
2019-02-02T09:40:26.439Z,45.75
2019-02-02T09:42:27.270Z,42.43
2019-02-02T09:44:28.389Z,39.07
2019-02-02T09:46:29.226Z,41.17
2019-02-02T09:48:30.068Z,40.70
2019-02-02T09:50:30.908Z,39.50
2019-02-02T09:52:31.888Z,29.67
2019-02-02T09:54:33.044Z,47.93
2019-02-02T09:56:34.210Z,36.13
2019-02-02T09:58:35.052Z,38.60
2019-02-02T10:00:35.936Z,38.83
2019-02-02T10:02:36.778Z,37.33
2019-02-02T10:04:37.609Z,37.03
2019-02-02T10:06:38.513Z,35.90
2019-02-02T10:08:39.353Z,36.57
2019-02-02T10:10:40.213Z,37.47
2019-02-02T10:12:41.360Z,37.37
2019-02-02T10:14:42.203Z,40.33
2019-02-02T10:16:43.064Z,39.00
2019-02-02T10:18:43.994Z,36.13
2019-02-02T10:20:44.832Z,33.37
2019-02-02T10:22:45.816Z,37.70
2019-02-02T10:24:46.877Z,36.13
2019-02-02T10:26:47.729Z,35.83
2019-02-02T10:28:48.562Z,35.47
2019-02-02T10:30:49.440Z,33.07
2019-02-02T10:32:50.728Z,35.37
2019-02-02T10:34:51.598Z,33.70
2019-02-02T10:36:52.432Z,37.00
2019-02-02T10:38:53.260Z,37.00
2019-02-02T10:40:54.116Z,34.23
2019-02-02T10:42:54.948Z,31.57
2019-02-02T10:44:55.785Z,28.33
2019-02-02T10:46:56.880Z,29.80
2019-02-02T10:48:58.000Z,28.90
2019-02-02T10:50:58.843Z,30.20
2019-02-02T10:52:59.667Z,28.90
2019-02-02T10:55:00.533Z,26.43
2019-02-02T10:57:01.604Z,30.10
2019-02-02T10:59:02.464Z,29.17
2019-02-02T11:01:03.300Z,27.57
2019-02-02T11:03:04.468Z,28.07
2019-02-02T11:05:05.378Z,28.33
2019-02-02T11:07:06.231Z,28.47
2019-02-02T11:09:07.201Z,26.53
2019-02-02T11:11:08.143Z,25.53
2019-02-02T11:13:09.361Z,26.63
2019-02-02T11:15:10.608Z,25.53
2019-02-02T11:17:11.476Z,25.27
2019-02-02T11:19:12.544Z,23.43
2019-02-02T11:21:13.543Z,23.77
2019-02-02T11:23:14.495Z,23.37
2019-02-02T11:25:15.448Z,24.00
2019-02-02T11:27:16.858Z,25.63
2019-02-02T11:29:17.779Z,23.00
2019-02-02T11:31:18.589Z,24.00
2019-02-02T11:33:19.424Z,21.27
2019-02-02T11:35:20.272Z,21.07
2019-02-02T11:37:21.405Z,21.10
2019-02-02T11:39:22.492Z,21.50
2019-02-02T11:41:23.393Z,20.30
2019-02-02T11:43:24.235Z,20.03
2019-02-02T11:45:25.092Z,20.50
2019-02-02T11:47:26.252Z,20.43
2019-02-02T11:49:27.353Z,20.53
2019-02-02T11:51:28.605Z,21.40
2019-02-02T11:53:29.455Z,19.10
2019-02-02T11:55:30.616Z,19.63
2019-02-02T11:57:31.464Z,17.70
2019-02-02T11:59:32.324Z,17.93
2019-02-02T12:01:33.166Z,18.53
2019-02-02T12:03:34.304Z,21.80
2019-02-02T12:05:35.160Z,20.13
2019-02-02T12:07:35.993Z,18.27
2019-02-02T12:09:36.848Z,16.70
2019-02-02T12:11:37.684Z,17.40
2019-02-02T12:13:38.760Z,18.60
2019-02-02T12:15:39.880Z,17.50
2019-02-02T12:17:40.720Z,16.33
2019-02-02T12:19:41.818Z,15.50
2019-02-02T12:21:42.648Z,19.40
2019-02-02T12:23:43.496Z,15.97
2019-02-02T12:25:44.356Z,20.00
2019-02-02T12:27:45.185Z,17.70
2019-02-02T12:29:46.043Z,14.53
2019-02-02T12:31:46.876Z,13.73
2019-02-02T12:33:48.002Z,11.23
2019-02-02T12:35:48.854Z,12.10
2019-02-02T12:37:49.685Z,11.03
2019-02-02T12:39:50.530Z,14.30
2019-02-02T12:41:51.382Z,11.47
2019-02-02T12:43:52.553Z,10.37
2019-02-02T12:45:53.393Z,9.33
2019-02-02T12:47:54.239Z,9.77
2019-02-02T12:49:55.073Z,8.70
2019-02-02T12:51:55.905Z,10.13
2019-02-02T12:53:56.773Z,10.03
2019-02-02T12:55:57.600Z,13.30
2019-02-02T12:57:58.444Z,11.80
2019-02-02T12:59:59.286Z,12.47
2019-02-02T13:02:00.481Z,13.33
2019-02-02T13:04:05.137Z,12.10
2019-02-02T13:06:04.352Z,13.17
2019-02-02T13:08:05.797Z,11.50
2019-02-02T13:10:07.209Z,13.47
2019-02-02T13:12:08.053Z,10.27
2019-02-02T13:14:08.904Z,9.83
2019-02-02T13:16:09.756Z,10.97
2019-02-02T13:18:10.594Z,10.07
2019-02-02T13:20:11.437Z,11.03
2019-02-02T13:22:12.301Z,12.10
2019-02-02T13:24:13.126Z,11.73
2019-02-02T13:26:13.953Z,10.93
2019-02-02T13:28:14.809Z,11.57
2019-02-02T13:30:15.647Z,11.83
2019-02-02T13:32:16.497Z,11.90
2019-02-02T13:34:17.909Z,13.77
2019-02-02T13:36:18.749Z,14.87
2019-02-02T13:38:19.600Z,13.73
2019-02-02T13:40:20.440Z,13.00
2019-02-02T13:42:21.289Z,13.53
2019-02-02T13:44:22.124Z,14.83
2019-02-02T13:46:22.969Z,12.77
2019-02-02T13:48:24.165Z,15.10
2019-02-02T13:50:25.032Z,17.37
2019-02-02T13:52:25.932Z,16.17
2019-02-02T13:54:26.800Z,14.20
2019-02-02T13:56:27.631Z,13.50
2019-02-02T13:58:28.810Z,13.80
2019-02-02T14:00:29.651Z,12.47
2019-02-02T14:02:30.486Z,12.03
2019-02-02T14:04:31.345Z,12.17
2019-02-02T14:06:32.172Z,12.40
2019-02-02T14:08:33.033Z,14.97
2019-02-02T14:10:33.880Z,13.87
2019-02-02T14:12:34.805Z,13.37
2019-02-02T14:14:35.897Z,13.10
2019-02-02T14:16:36.749Z,16.10
2019-02-02T14:18:37.584Z,13.27
2019-02-02T14:20:38.435Z,12.03
2019-02-02T14:22:39.616Z,11.50
2019-02-02T14:24:40.452Z,13.53
2019-02-02T14:26:41.308Z,11.43
2019-02-02T14:28:42.160Z,10.80
2019-02-02T14:30:42.992Z,11.60
2019-02-02T14:32:44.116Z,11.33
2019-02-02T14:34:44.949Z,11.93
2019-02-02T14:36:45.776Z,13.63
2019-02-02T14:38:46.640Z,13.20
2019-02-02T14:40:47.464Z,13.90
2019-02-02T14:42:48.337Z,13.53
2019-02-02T14:44:49.296Z,14.43
2019-02-02T14:46:50.233Z,13.13
2019-02-02T14:48:51.060Z,14.57
2019-02-02T14:50:51.908Z,14.83
2019-02-02T14:52:52.781Z,14.40
2019-02-02T14:54:53.868Z,14.17
2019-02-02T14:56:54.725Z,17.33
2019-02-02T14:58:55.558Z,14.93
2019-02-02T15:00:56.399Z,15.67
2019-02-02T15:02:57.783Z,16.17
2019-02-02T15:04:58.624Z,15.03
2019-02-02T15:06:59.465Z,15.67
2019-02-02T15:09:00.316Z,16.37
2019-02-02T15:11:01.166Z,19.50
2019-02-02T15:13:02.312Z,18.67
2019-02-02T15:15:05.839Z,24.90
2019-02-02T15:17:06.541Z,23.93
2019-02-02T15:19:07.381Z,26.40
2019-02-02T15:21:08.224Z,26.33
2019-02-02T15:23:09.056Z,28.13
2019-02-02T15:25:09.909Z,26.67
2019-02-02T15:27:10.764Z,28.97
2019-02-02T15:29:11.609Z,26.00
2019-02-02T15:31:12.433Z,25.07
2019-02-02T15:33:13.285Z,25.83
2019-02-02T15:35:14.410Z,25.10
2019-02-02T15:37:15.352Z,26.03
2019-02-02T15:39:16.200Z,29.80
2019-02-02T15:41:17.333Z,28.27
2019-02-02T15:43:18.192Z,26.00
2019-02-02T15:45:19.308Z,25.73
2019-02-02T15:47:20.544Z,24.30
2019-02-02T15:49:21.412Z,26.37
2019-02-02T15:51:22.236Z,27.23
2019-02-02T15:53:23.172Z,26.07
2019-02-02T15:55:24.253Z,24.17
2019-02-02T15:57:25.348Z,24.90
2019-02-02T15:59:26.198Z,25.40
2019-02-02T16:01:27.032Z,23.07
2019-02-02T16:03:28.152Z,23.40
2019-02-02T16:05:29.002Z,22.80
2019-02-02T16:07:30.114Z,22.53
2019-02-02T16:09:31.271Z,22.70
2019-02-02T16:11:32.105Z,21.10
2019-02-02T16:13:32.947Z,22.33
2019-02-02T16:15:34.467Z,23.47
2019-02-02T16:17:35.912Z,24.80
2019-02-02T16:19:36.798Z,23.73
2019-02-02T16:21:37.629Z,21.83
2019-02-02T16:23:38.462Z,26.30
2019-02-02T16:25:39.320Z,30.43
2019-02-02T16:27:40.149Z,25.37
2019-02-02T16:29:40.985Z,25.97
2019-02-02T16:31:41.837Z,21.73
2019-02-02T16:33:42.693Z,22.07
2019-02-02T16:35:43.966Z,20.87
2019-02-02T16:37:44.865Z,21.53
2019-02-02T16:39:45.717Z,22.97
2019-02-02T16:41:46.552Z,21.77
2019-02-02T16:43:47.685Z,20.67
2019-02-02T16:45:48.541Z,22.87
2019-02-02T16:47:49.368Z,20.27
2019-02-02T16:49:50.199Z,22.87
2019-02-02T16:51:51.047Z,21.17
2019-02-02T16:53:51.892Z,19.77
2019-02-02T16:55:52.721Z,21.47
2019-02-02T16:57:53.834Z,22.53
2019-02-02T16:59:54.676Z,23.97
2019-02-02T17:01:55.500Z,32.77
2019-02-02T17:03:56.356Z,27.63
2019-02-02T17:05:57.441Z,27.33
2019-02-02T17:07:58.272Z,24.57
2019-02-02T17:09:59.132Z,24.40
2019-02-02T17:12:00.265Z,23.80
2019-02-02T17:14:01.105Z,26.83
2019-02-02T17:16:02.240Z,24.10
2019-02-02T17:18:03.076Z,23.57
2019-02-02T17:20:03.920Z,26.17
2019-02-02T17:22:04.789Z,24.97
2019-02-02T17:24:05.619Z,24.33
2019-02-02T17:26:06.577Z,25.73
2019-02-02T17:28:07.436Z,23.97
2019-02-02T17:30:08.264Z,24.33
2019-02-02T17:32:09.109Z,27.60
2019-02-02T17:34:10.248Z,27.97
2019-02-02T17:36:11.088Z,23.00
2019-02-02T17:38:12.015Z,23.33
2019-02-02T17:40:13.012Z,24.13
2019-02-02T17:42:14.197Z,24.17
2019-02-02T17:44:15.057Z,24.50
2019-02-02T17:46:15.884Z,22.87
2019-02-02T17:48:16.713Z,23.20
2019-02-02T17:50:17.563Z,23.70
2019-02-02T17:52:18.396Z,21.83
2019-02-02T17:54:19.236Z,21.93
2019-02-02T17:56:20.336Z,23.00
2019-02-02T17:58:21.169Z,22.83
2019-02-02T18:00:26.717Z,23.83
2019-02-02T18:02:27.572Z,25.57
2019-02-02T18:04:39.031Z,24.97
2019-02-02T18:06:31.669Z,24.03
2019-02-02T18:08:32.757Z,25.73
2019-02-02T18:10:33.590Z,29.30
2019-02-02T18:12:34.425Z,30.17
2019-02-02T18:14:35.512Z,28.33
2019-02-02T18:16:36.360Z,27.30
2019-02-02T18:18:37.192Z,25.40
2019-02-02T18:20:38.268Z,25.97
2019-02-02T18:22:39.121Z,24.80
2019-02-02T18:24:39.956Z,23.63
2019-02-02T18:26:40.801Z,25.60
2019-02-02T18:28:41.642Z,25.67
2019-02-02T18:30:42.503Z,23.70
2019-02-02T18:32:43.572Z,25.83
2019-02-02T18:34:51.330Z,26.07
2019-02-02T18:36:47.154Z,25.33
2019-02-02T18:38:48.256Z,24.83
2019-02-02T18:40:49.120Z,25.90
2019-02-02T18:42:50.255Z,26.27
2019-02-02T18:44:51.085Z,24.00
2019-02-02T18:46:51.932Z,24.43
2019-02-02T18:48:52.781Z,25.07
2019-02-02T18:50:53.616Z,25.20
2019-02-02T18:52:54.448Z,26.43
2019-02-02T18:54:55.304Z,26.70
2019-02-02T18:56:56.153Z,25.27
2019-02-02T18:58:57.249Z,28.67
2019-02-02T19:00:58.080Z,30.87
2019-02-02T19:02:58.913Z,36.43
2019-02-02T19:05:03.754Z,34.07
2019-02-02T19:07:02.748Z,27.33
2019-02-02T19:09:04.020Z,28.63
2019-02-02T19:11:05.101Z,29.63
2019-02-02T19:13:05.936Z,31.10
2019-02-02T19:15:07.032Z,28.13
2019-02-02T19:17:07.869Z,24.63
2019-02-02T19:19:08.831Z,25.50
2019-02-02T19:21:09.756Z,25.03
2019-02-02T19:23:10.589Z,25.73
2019-02-02T19:25:11.414Z,25.10
2019-02-02T19:27:12.273Z,27.60
2019-02-02T19:29:13.098Z,28.13
2019-02-02T19:31:13.950Z,29.77
2019-02-02T19:33:15.065Z,27.80
2019-02-02T19:35:16.614Z,29.43
2019-02-02T19:37:17.869Z,29.07
2019-02-02T19:39:18.713Z,30.00
2019-02-02T19:41:19.564Z,32.63
2019-02-02T19:43:20.397Z,29.90
2019-02-02T19:45:21.484Z,33.20
2019-02-02T19:47:22.354Z,29.97
2019-02-02T19:49:23.420Z,32.73
2019-02-02T19:51:24.252Z,31.57
2019-02-02T19:53:25.151Z,31.07
2019-02-02T19:55:26.136Z,31.00
2019-02-02T19:57:26.969Z,30.27
2019-02-02T19:59:28.062Z,34.17
2019-02-02T20:01:28.907Z,35.23
2019-02-02T20:03:29.748Z,38.63
2019-02-02T20:05:30.590Z,39.60
2019-02-02T20:07:31.446Z,37.27
2019-02-02T20:09:32.293Z,38.10
2019-02-02T20:11:33.116Z,37.43
2019-02-02T20:13:33.964Z,35.93
2019-02-02T20:15:34.821Z,37.17
2019-02-02T20:17:35.761Z,39.77
2019-02-02T20:19:36.601Z,43.57
2019-02-02T20:21:37.688Z,41.37
2019-02-02T20:23:38.783Z,44.37
2019-02-02T20:25:39.624Z,44.63
2019-02-02T20:27:40.460Z,44.70
2019-02-02T20:29:41.312Z,46.73
2019-02-02T20:31:42.141Z,46.00
2019-02-02T20:33:42.981Z,46.27
2019-02-02T20:35:43.832Z,44.03
2019-02-02T20:37:44.672Z,45.27
2019-02-02T20:39:45.524Z,43.50
2019-02-02T20:41:46.385Z,38.40
2019-02-02T20:43:47.496Z,41.03
2019-02-02T20:45:48.343Z,39.10
2019-02-02T20:47:49.189Z,37.97
2019-02-02T20:49:50.013Z,34.73
2019-02-02T20:51:50.861Z,38.70
2019-02-02T20:53:51.715Z,37.53
2019-02-02T20:55:52.560Z,40.20
2019-02-02T20:57:53.398Z,35.73
2019-02-02T20:59:54.261Z,35.20
2019-02-02T21:01:55.399Z,37.80
2019-02-02T21:03:56.245Z,35.90
2019-02-02T21:05:57.102Z,36.40
2019-02-02T21:07:58.200Z,37.47
2019-02-02T21:09:59.069Z,36.87
2019-02-02T21:11:59.935Z,35.00
2019-02-02T21:14:00.790Z,37.87
2019-02-02T21:16:01.640Z,38.93
2019-02-02T21:18:02.516Z,40.50
2019-02-02T21:20:04.207Z,45.77
2019-02-02T21:22:05.056Z,45.40
2019-02-02T21:24:05.904Z,42.27
2019-02-02T21:26:06.736Z,42.20
2019-02-02T21:28:07.610Z,44.63
2019-02-02T21:30:08.706Z,44.93
2019-02-02T21:32:09.564Z,44.43
2019-02-02T21:34:10.405Z,42.47
2019-02-02T21:36:11.265Z,41.73
2019-02-02T21:38:12.336Z,44.57
2019-02-02T21:40:13.196Z,45.83
2019-02-02T21:42:14.048Z,42.03
2019-02-02T21:44:14.896Z,38.87
2019-02-02T21:46:16.054Z,44.40
2019-02-02T21:48:16.886Z,43.50
2019-02-02T21:50:17.722Z,39.67
2019-02-02T21:52:18.568Z,39.80
2019-02-02T21:54:19.643Z,43.27
2019-02-02T21:56:20.500Z,44.30
2019-02-02T21:58:21.610Z,48.00
2019-02-02T22:00:22.448Z,45.80
2019-02-02T22:02:23.280Z,45.40
2019-02-02T22:04:24.352Z,42.00
2019-02-02T22:06:25.209Z,42.70
2019-02-02T22:08:26.317Z,44.40
2019-02-02T22:10:27.270Z,44.47
2019-02-02T22:12:28.668Z,41.73
2019-02-02T22:14:29.505Z,43.93
2019-02-02T22:16:30.576Z,43.10
2019-02-02T22:18:31.432Z,46.33
2019-02-02T22:20:32.266Z,45.77
2019-02-02T22:22:33.168Z,47.63
2019-02-02T22:24:34.152Z,42.70
2019-02-02T22:26:35.019Z,45.20
2019-02-02T22:28:36.092Z,45.33
2019-02-02T22:30:36.956Z,46.07
2019-02-02T22:32:37.780Z,47.73
2019-02-02T22:34:38.621Z,45.07
2019-02-02T22:36:39.716Z,44.83
2019-02-02T22:38:40.757Z,44.07
2019-02-02T22:40:41.580Z,45.70
2019-02-02T22:42:42.672Z,47.60
2019-02-02T22:44:43.805Z,46.73
2019-02-02T22:46:44.644Z,45.97
2019-02-02T22:48:45.716Z,45.83
2019-02-02T22:50:46.812Z,44.60
2019-02-02T22:52:47.885Z,44.50
2019-02-02T22:54:48.740Z,42.87
2019-02-02T22:56:50.136Z,46.30
2019-02-02T22:58:50.964Z,44.73
2019-02-02T23:01:01.709Z,49.10
2019-02-02T23:03:02.823Z,46.43
2019-02-02T23:05:03.654Z,48.23
2019-02-02T23:07:05.113Z,50.30
2019-02-02T23:09:05.952Z,54.00
2019-02-02T23:11:06.777Z,50.80
2019-02-02T23:13:07.618Z,50.47
2019-02-02T23:15:08.445Z,48.33
2019-02-02T23:17:09.557Z,46.97
2019-02-02T23:19:10.413Z,44.67
2019-02-02T23:21:11.249Z,44.47
2019-02-02T23:23:12.340Z,43.83
2019-02-02T23:25:13.849Z,45.23
2019-02-02T23:27:14.941Z,44.27
2019-02-02T23:29:15.772Z,44.57
2019-02-02T23:31:16.612Z,40.83
2019-02-02T23:33:17.441Z,46.03
2019-02-02T23:35:18.295Z,44.83
2019-02-02T23:37:19.125Z,43.40
2019-02-02T23:39:19.976Z,46.80
2019-02-02T23:41:21.061Z,43.47
2019-02-02T23:43:21.996Z,43.60
2019-02-02T23:45:22.855Z,41.87
2019-02-02T23:47:23.681Z,43.43
2019-02-02T23:49:24.766Z,46.47
2019-02-02T23:51:26.016Z,43.53
2019-02-02T23:53:26.844Z,46.13
2019-02-02T23:55:27.689Z,47.00
2019-02-02T23:57:28.520Z,47.37
2019-02-02T23:59:29.376Z,42.37
